Impacts TAF Board
For situational awareness. Not to be used for flight planning purposes.
IDs:

KDEN - Denver Intl, CO, US

Issued at 0927 UTC 17 Feb 2019
Updated at 0947 UTC 17 Feb 2019
Potential Impact None Slight Moderate High
Time0853Z 17/10Z 17/11Z 17/12Z 17/13Z 17/14Z 17/15Z 17/16Z 17/17Z 17/18Z 17/19Z 17/20Z 17/21Z 17/22Z>>
Type OBS PRVL PRVL PRVL PRVL PRVL PRVL PRVL PRVL PRVL PRVL PRVL PRVL PRVL
VIS 10 >6 >6 >6 >6 >6 >6 >6 >6 >6 >6 >6 >6 >6
CIG -- -- -- -- -- -- -- -- -- -- -- -- 90 90
Cover FEW SCT SCT SCT SCT SCT SCT SCT SCT SCT SCT SCT BKN BKN
FltCat VFR VFR VFR VFR VFR VFR VFR VFR VFR VFR VFR VFR VFR VFR
WX -- -- -- -- -- -- -- -- -- -- -- -- -- --
WDir 230 220 220 220 220 220 170 170 170 60 60 60 80 80
WSpd 3 7 7 7 7 7 6 6 6 7 7 7 10 10
WGst -- -- -- -- -- -- -- -- -- -- -- -- 20 20
Raw TAF
KDEN 170927Z 1709/1812 22007KT P6SM FEW070 SCT120
  FM171500 17006KT P6SM FEW070 SCT120
  FM171800 06007KT P6SM SCT220
  FM172100 08010G20KT P6SM SCT070 BKN090
  PROB30 1723/1804 4SM -SHSN OVC025
  FM180600 07008KT P6SM OVC015
  PROB30 1806/1812 4SM -SHSN BKN009


Raw METAR
KDEN 170853Z 23003KT 10SM FEW150 M06/M17 A2972 RMK AO2 SLP084 T10611172 51004
KDEN 170753Z 24007KT 10SM FEW150 M07/M17 A2972 RMK AO2 SLP083 T10671167
KDEN 170653Z 26005KT 10SM FEW150 M05/M16 A2972 RMK AO2 SLP071 T10501161 400441089

METAR Board
Radar Display
Forecast Discussion
For situational awareness. Not to be used for flight planning purposes.